Time;durP1;ratioP1;P1;durP2;ratioP2;P2;SDS_P1;SDS_P2;PMS_P1;PMS_P2;Temp;Humidity;BMP_temperature;BMP_pressure;BME280_temperature;BME280_humidity;BME280_pressure;Samples;Min_cycle;Max_cycle;Signal;HPM_P1;HPM_P2
2022/09/12 00:00:08;;;;;;;8.23;5.40;;;;;;;;;;5065716;28;20063;-84
2022/09/12 00:02:34;;;;;;;8.77;4.97;;;;;;;;;;5059124;28;20040;-83
2022/09/12 00:05:00;;;;;;;6.85;4.72;;;;;;;;;;5058617;28;20032;-82
2022/09/12 00:07:26;;;;;;;8.88;5.80;;;;;;;;;;5056015;28;20037;-81
2022/09/12 00:09:52;;;;;;;9.88;5.90;;;;;;;;;;5058562;28;20095;-81
2022/09/12 00:12:18;;;;;;;7.22;5.07;;;;;;;;;;5058623;28;20052;-80
2022/09/12 00:14:44;;;;;;;8.00;5.68;;;;;;;;;;5058610;28;20476;-81
2022/09/12 00:17:11;;;;;;;7.70;5.57;;;;;;;;;;5058721;28;20021;-81
2022/09/12 00:19:37;;;;;;;8.20;5.63;;;;;;;;;;5065881;28;20419;-81
2022/09/12 00:22:03;;;;;;;6.97;5.30;;;;;;;;;;5058377;28;20040;-80
2022/09/12 00:24:29;;;;;;;7.65;4.93;;;;;;;;;;5056575;28;20028;-82
2022/09/12 00:26:55;;;;;;;7.20;5.05;;;;;;;;;;5060776;28;20086;-83
2022/09/12 00:29:21;;;;;;;7.32;4.55;;;;;;;;;;5059067;28;20396;-82
2022/09/12 00:31:48;;;;;;;8.23;5.18;;;;;;;;;;5057576;28;20029;-83
2022/09/12 00:34:14;;;;;;;8.25;5.00;;;;;;;;;;5058019;28;20017;-82
2022/09/12 00:36:40;;;;;;;8.77;5.00;;;;;;;;;;5056480;28;20025;-82
2022/09/12 00:39:07;;;;;;;6.65;4.30;;;;;;;;;;5055947;28;20033;-82
2022/09/12 00:41:35;;;;;;;6.50;4.78;;;;;;;;;;5056404;28;20025;-82
2022/09/12 00:44:04;;;;;;;7.72;4.65;;;;;;;;;;5057918;28;20090;-82
2022/09/12 00:46:33;;;;;;;7.45;5.15;;;;;;;;;;5056312;28;20033;-82
2022/09/12 00:49:01;;;;;;;6.03;4.15;;;;;;;;;;5057745;28;20040;-83
2022/09/12 00:51:29;;;;;;;7.93;5.22;;;;;;;;;;5069582;28;20029;-81
2022/09/12 00:53:56;;;;;;;7.20;4.82;;;;;;;;;;5056609;28;20032;-81
2022/09/12 00:56:23;;;;;;;6.97;4.63;;;;;;;;;;5054978;28;20120;-81
2022/09/12 00:58:52;;;;;;;8.05;4.78;;;;;;;;;;5050334;28;20061;-81
2022/09/12 01:01:19;;;;;;;6.72;4.45;;;;;;;;;;5050514;28;20584;-81
2022/09/12 01:03:45;;;;;;;7.15;4.18;;;;;;;;;;5058186;28;20033;-79
2022/09/12 01:06:11;;;;;;;6.85;4.47;;;;;;;;;;5057162;28;20059;-80
2022/09/12 01:08:39;;;;;;;7.63;4.50;;;;;;;;;;5051837;28;20036;-81
2022/09/12 01:11:06;;;;;;;7.15;4.82;;;;;;;;;;5074213;28;20396;-81
2022/09/12 01:13:34;;;;;;;7.38;4.25;;;;;;;;;;5077252;28;20024;-80
2022/09/12 01:16:02;;;;;;;6.57;4.45;;;;;;;;;;5061434;28;20433;-81
2022/09/12 01:18:34;;;;;;;7.47;4.82;;;;;;;;;;5048644;28;20021;-81
2022/09/12 01:21:03;;;;;;;8.05;4.22;;;;;;;;;;5057818;28;20051;-81
2022/09/12 01:23:32;;;;;;;7.03;5.05;;;;;;;;;;5057944;28;20021;-81
2022/09/12 01:26:04;;;;;;;7.90;4.38;;;;;;;;;;5054968;28;20033;-81
2022/09/12 01:28:39;;;;;;;7.10;4.57;;;;;;;;;;5048295;28;20078;-80
2022/09/12 01:31:11;;;;;;;6.63;4.25;;;;;;;;;;5056881;28;20656;-81
2022/09/12 01:33:49;;;;;;;6.65;4.82;;;;;;;;;;5054897;28;20552;-82
2022/09/12 01:36:49;;;;;;;6.95;4.70;;;;;;;;;;5054512;28;20064;-81
2022/09/12 01:39:34;;;;;;;6.85;4.43;;;;;;;;;;5044181;28;20025;-81
2022/09/12 01:42:09;;;;;;;7.07;4.70;;;;;;;;;;5069344;28;20028;-81
2022/09/12 01:44:55;;;;;;;6.85;4.55;;;;;;;;;;5072177;28;20027;-80
2022/09/12 01:47:23;;;;;;;7.68;5.10;;;;;;;;;;5059620;28;20051;-80
2022/09/12 01:49:51;;;;;;;6.68;4.75;;;;;;;;;;5050320;28;20028;-81
2022/09/12 01:52:21;;;;;;;8.70;5.35;;;;;;;;;;5057083;28;20032;-80
2022/09/12 01:54:57;;;;;;;9.20;4.90;;;;;;;;;;5054004;28;20025;-80
2022/09/12 01:57:32;;;;;;;6.78;4.45;;;;;;;;;;5055991;28;20027;-80
2022/09/12 02:00:00;;;;;;;7.15;4.90;;;;;;;;;;5056784;28;20029;-79
2022/09/12 02:02:38;;;;;;;7.55;4.65;;;;;;;;;;5056753;28;20056;-80
2022/09/12 02:05:04;;;;;;;6.60;4.38;;;;;;;;;;5056662;28;20043;-80
2022/09/12 02:07:49;;;;;;;7.68;4.57;;;;;;;;;;5054873;28;20038;-80
2022/09/12 02:10:22;;;;;;;7.05;4.82;;;;;;;;;;5063856;28;20032;-80
2022/09/12 02:13:14;;;;;;;8.38;4.78;;;;;;;;;;5066900;28;20021;-80
2022/09/12 02:15:44;;;;;;;6.63;4.38;;;;;;;;;;5056963;28;20037;-79
2022/09/12 02:18:13;;;;;;;8.32;4.70;;;;;;;;;;5049617;28;20037;-80
2022/09/12 02:20:40;;;;;;;9.63;6.00;;;;;;;;;;5067923;28;20427;-81
2022/09/12 02:23:08;;;;;;;8.32;4.72;;;;;;;;;;5074692;28;20111;-80
2022/09/12 02:25:37;;;;;;;10.18;5.40;;;;;;;;;;5073364;28;20040;-80
2022/09/12 02:28:03;;;;;;;6.40;4.40;;;;;;;;;;5053794;28;20344;-80
2022/09/12 02:30:34;;;;;;;7.03;4.75;;;;;;;;;;5061595;28;20033;-80
2022/09/12 02:33:05;;;;;;;7.07;4.45;;;;;;;;;;5060579;28;20029;-80
2022/09/12 02:35:31;;;;;;;7.28;5.07;;;;;;;;;;5058158;28;20021;-80
2022/09/12 02:37:57;;;;;;;7.43;5.18;;;;;;;;;;5059962;28;20031;-80
2022/09/12 02:40:24;;;;;;;8.45;5.28;;;;;;;;;;5072306;28;20028;-80
2022/09/12 02:42:50;;;;;;;7.63;5.32;;;;;;;;;;5066204;28;20092;-80
2022/09/12 02:45:17;;;;;;;9.63;5.40;;;;;;;;;;5058047;28;20051;-80
2022/09/12 02:47:49;;;;;;;7.50;5.53;;;;;;;;;;5059223;28;20119;-80
2022/09/12 02:50:15;;;;;;;7.50;5.18;;;;;;;;;;5061691;28;20040;-80
2022/09/12 02:52:42;;;;;;;9.05;5.80;;;;;;;;;;5060613;28;20059;-80
2022/09/12 02:55:10;;;;;;;8.23;5.28;;;;;;;;;;5060340;28;20036;-80
2022/09/12 02:57:36;;;;;;;8.73;5.72;;;;;;;;;;5059926;28;20108;-80
2022/09/12 03:00:04;;;;;;;7.75;5.70;;;;;;;;;;5055616;28;20112;-80
2022/09/12 03:02:39;;;;;;;8.05;5.53;;;;;;;;;;5049686;28;20048;-80
2022/09/12 03:05:35;;;;;;;7.82;5.30;;;;;;;;;;5060162;28;20056;-80
2022/09/12 03:08:16;;;;;;;8.63;5.80;;;;;;;;;;5056233;28;20029;-80
2022/09/12 03:10:57;;;;;;;9.00;5.75;;;;;;;;;;5056101;28;20044;-80
2022/09/12 03:13:36;;;;;;;8.82;5.90;;;;;;;;;;5058603;28;20090;-80
2022/09/12 03:16:24;;;;;;;9.70;5.45;;;;;;;;;;5059406;28;20102;-80
2022/09/12 03:19:05;;;;;;;9.15;5.85;;;;;;;;;;5050766;28;20025;-81
2022/09/12 03:21:47;;;;;;;7.28;5.75;;;;;;;;;;5059838;28;20036;-81
2022/09/12 03:24:16;;;;;;;10.07;6.57;;;;;;;;;;5059069;28;20048;-81
2022/09/12 03:26:42;;;;;;;7.80;5.47;;;;;;;;;;5057521;28;20116;-81
2022/09/12 03:29:09;;;;;;;9.63;5.80;;;;;;;;;;5059272;28;20520;-81
2022/09/12 03:31:36;;;;;;;8.57;5.50;;;;;;;;;;5079574;28;20020;-81
2022/09/12 03:34:02;;;;;;;8.05;5.45;;;;;;;;;;5079630;28;20020;-80
2022/09/12 03:36:29;;;;;;;8.82;5.43;;;;;;;;;;5079350;28;20031;-79
2022/09/12 03:38:55;;;;;;;7.53;5.38;;;;;;;;;;5053445;28;20025;-80
2022/09/12 03:41:21;;;;;;;9.07;5.57;;;;;;;;;;5058396;28;20025;-80
2022/09/12 03:43:47;;;;;;;9.18;5.57;;;;;;;;;;5057894;28;20021;-80
2022/09/12 03:46:13;;;;;;;8.43;5.65;;;;;;;;;;5059040;28;20052;-81
2022/09/12 03:48:40;;;;;;;8.68;5.80;;;;;;;;;;5047163;28;20029;-80
2022/09/12 03:51:07;;;;;;;9.23;5.72;;;;;;;;;;5058973;28;20037;-81
2022/09/12 03:53:33;;;;;;;9.63;5.78;;;;;;;;;;5054503;28;20017;-81
2022/09/12 03:55:59;;;;;;;11.90;6.18;;;;;;;;;;5049867;28;20263;-81
2022/09/12 03:58:29;;;;;;;9.15;6.22;;;;;;;;;;5053491;28;20032;-81
2022/09/12 04:00:55;;;;;;;8.90;6.22;;;;;;;;;;5057102;28;20032;-81
2022/09/12 04:03:21;;;;;;;9.70;6.65;;;;;;;;;;5058239;28;20120;-80
2022/09/12 04:05:47;;;;;;;9.68;6.22;;;;;;;;;;5056181;28;20036;-81
2022/09/12 04:08:14;;;;;;;10.25;6.53;;;;;;;;;;5056338;28;20017;-81
2022/09/12 04:10:40;;;;;;;10.85;6.82;;;;;;;;;;5056162;28;20032;-81
2022/09/12 04:13:06;;;;;;;10.82;7.43;;;;;;;;;;5058762;28;20029;-81
2022/09/12 04:15:32;;;;;;;11.65;7.45;;;;;;;;;;5057975;28;20017;-80
2022/09/12 04:17:58;;;;;;;11.10;7.90;;;;;;;;;;5059550;28;20132;-80
2022/09/12 04:20:24;;;;;;;11.35;7.40;;;;;;;;;;5063461;28;20028;-80
2022/09/12 04:22:50;;;;;;;12.07;8.43;;;;;;;;;;5047642;28;20020;-80
2022/09/12 04:25:16;;;;;;;10.88;7.90;;;;;;;;;;5059587;28;20031;-80
2022/09/12 04:27:42;;;;;;;11.45;7.88;;;;;;;;;;5058403;28;20112;-81
2022/09/12 04:30:12;;;;;;;12.88;8.52;;;;;;;;;;5053901;28;20068;-81
2022/09/12 04:32:38;;;;;;;13.55;8.88;;;;;;;;;;5051591;28;20036;-82
2022/09/12 04:35:04;;;;;;;13.65;9.40;;;;;;;;;;5052510;28;20037;-81
2022/09/12 04:37:31;;;;;;;12.85;8.35;;;;;;;;;;5046958;28;20027;-81
2022/09/12 04:39:58;;;;;;;13.10;8.63;;;;;;;;;;5057479;28;20540;-81
2022/09/12 04:42:24;;;;;;;14.00;9.23;;;;;;;;;;5047415;28;20120;-81
2022/09/12 04:44:50;;;;;;;14.18;9.77;;;;;;;;;;5052115;28;20060;-81
2022/09/12 04:47:17;;;;;;;13.43;8.63;;;;;;;;;;5043768;28;20045;-80
2022/09/12 04:49:43;;;;;;;12.43;8.68;;;;;;;;;;5048893;28;20115;-81
2022/09/12 04:52:09;;;;;;;13.05;8.55;;;;;;;;;;5056905;28;20041;-80
2022/09/12 04:54:35;;;;;;;13.02;8.88;;;;;;;;;;5057672;28;20061;-80
2022/09/12 04:57:01;;;;;;;13.18;9.15;;;;;;;;;;5056571;28;20025;-80
2022/09/12 04:59:27;;;;;;;13.88;9.68;;;;;;;;;;5060001;28;20021;-80
2022/09/12 05:01:53;;;;;;;14.93;8.85;;;;;;;;;;5058785;28;20095;-80
2022/09/12 05:04:20;;;;;;;13.63;8.68;;;;;;;;;;5057775;28;20056;-80
2022/09/12 05:06:46;;;;;;;13.55;8.70;;;;;;;;;;5057436;28;20021;-81
2022/09/12 05:09:13;;;;;;;13.68;8.70;;;;;;;;;;5057557;28;20111;-80
2022/09/12 05:11:40;;;;;;;13.40;8.45;;;;;;;;;;5054117;28;20028;-81
2022/09/12 05:14:07;;;;;;;12.73;8.25;;;;;;;;;;5058459;28;20047;-81
2022/09/12 05:16:33;;;;;;;12.00;8.15;;;;;;;;;;5056603;28;20040;-80
2022/09/12 05:19:00;;;;;;;12.48;8.13;;;;;;;;;;5056648;28;20089;-80
2022/09/12 05:21:26;;;;;;;10.98;7.70;;;;;;;;;;5053628;28;20153;-81
2022/09/12 05:23:53;;;;;;;11.52;7.47;;;;;;;;;;5058792;28;20543;-80
2022/09/12 05:26:20;;;;;;;11.25;7.45;;;;;;;;;;5054941;28;20492;-81
2022/09/12 05:28:47;;;;;;;9.27;6.63;;;;;;;;;;5043809;28;20017;-81
2022/09/12 05:31:16;;;;;;;10.02;7.10;;;;;;;;;;5048066;28;20023;-81
2022/09/12 05:33:43;;;;;;;9.57;6.47;;;;;;;;;;5052759;28;20540;-81
2022/09/12 05:36:11;;;;;;;11.35;7.35;;;;;;;;;;5050899;28;20040;-81
2022/09/12 05:38:37;;;;;;;12.32;7.30;;;;;;;;;;5053851;28;20057;-81
2022/09/12 05:41:05;;;;;;;10.85;7.25;;;;;;;;;;5053992;28;20036;-81
2022/09/12 05:43:31;;;;;;;13.32;7.50;;;;;;;;;;5053430;28;20108;-81
2022/09/12 05:46:01;;;;;;;10.57;7.32;;;;;;;;;;5067851;28;20088;-81
2022/09/12 05:48:27;;;;;;;10.68;6.53;;;;;;;;;;5054026;28;20039;-80
2022/09/12 05:50:58;;;;;;;10.98;7.25;;;;;;;;;;5055505;28;20025;-80
2022/09/12 05:53:27;;;;;;;13.70;8.88;;;;;;;;;;5053766;28;20029;-81
2022/09/12 05:56:01;;;;;;;10.77;7.63;;;;;;;;;;5065722;28;20021;-81
2022/09/12 05:58:27;;;;;;;11.30;7.82;;;;;;;;;;5075743;28;20017;-81
2022/09/12 06:00:55;;;;;;;15.95;9.25;;;;;;;;;;5055721;28;20489;-81
2022/09/12 06:03:21;;;;;;;9.63;6.10;;;;;;;;;;5056448;28;20154;-81
2022/09/12 06:05:47;;;;;;;10.98;6.00;;;;;;;;;;5061860;28;20025;-80
2022/09/12 06:08:13;;;;;;;9.63;6.28;;;;;;;;;;5061078;28;20128;-81
2022/09/12 06:10:39;;;;;;;9.40;6.82;;;;;;;;;;5061827;28;20131;-81
2022/09/12 06:13:05;;;;;;;9.30;6.28;;;;;;;;;;5062134;28;20127;-81
2022/09/12 06:15:32;;;;;;;9.52;6.38;;;;;;;;;;5062940;28;20176;-81
2022/09/12 06:17:58;;;;;;;9.32;6.10;;;;;;;;;;5063984;28;20413;-81
2022/09/12 06:20:24;;;;;;;9.30;5.80;;;;;;;;;;5076571;28;20020;-81
2022/09/12 06:22:52;;;;;;;10.65;6.90;;;;;;;;;;5065683;28;20158;-81
2022/09/12 06:25:18;;;;;;;8.07;5.35;;;;;;;;;;5061531;28;20094;-81
2022/09/12 06:27:46;;;;;;;8.55;5.70;;;;;;;;;;5061786;28;20025;-81
2022/09/12 06:30:12;;;;;;;8.32;5.40;;;;;;;;;;5072562;28;20051;-81
2022/09/12 06:32:38;;;;;;;9.00;5.53;;;;;;;;;;5065211;28;20044;-81
2022/09/12 06:35:04;;;;;;;8.60;5.45;;;;;;;;;;5051803;28;20025;-81
2022/09/12 06:37:31;;;;;;;8.38;5.35;;;;;;;;;;5043197;28;20025;-81
2022/09/12 06:39:57;;;;;;;7.43;4.53;;;;;;;;;;5063958;28;20124;-79
2022/09/12 06:42:23;;;;;;;9.25;5.60;;;;;;;;;;5079995;28;20131;-80
2022/09/12 06:44:49;;;;;;;8.93;5.25;;;;;;;;;;5070291;28;20026;-81
2022/09/12 06:47:15;;;;;;;8.90;5.03;;;;;;;;;;5047052;28;20051;-80
2022/09/12 06:49:41;;;;;;;7.07;4.75;;;;;;;;;;5060999;28;20036;-81
2022/09/12 06:52:08;;;;;;;8.73;5.03;;;;;;;;;;5080792;28;20033;-81
2022/09/12 06:54:34;;;;;;;8.40;5.13;;;;;;;;;;5080991;28;20031;-81
2022/09/12 06:57:00;;;;;;;7.68;4.80;;;;;;;;;;5073443;28;20033;-81
2022/09/12 06:59:27;;;;;;;8.43;4.88;;;;;;;;;;5051463;28;20024;-80
2022/09/12 07:01:53;;;;;;;7.95;4.40;;;;;;;;;;5060327;28;20075;-80
2022/09/12 07:04:19;;;;;;;8.13;5.30;;;;;;;;;;5059923;28;20024;-80
2022/09/12 07:06:45;;;;;;;7.03;4.80;;;;;;;;;;5063573;28;20129;-80
2022/09/12 07:09:12;;;;;;;8.63;4.90;;;;;;;;;;5079906;28;20040;-80
2022/09/12 07:11:39;;;;;;;8.55;5.28;;;;;;;;;;5049499;28;20040;-80
2022/09/12 07:14:06;;;;;;;8.35;5.07;;;;;;;;;;5047387;28;20028;-81
2022/09/12 07:16:34;;;;;;;7.82;4.63;;;;;;;;;;5060791;28;20036;-81
2022/09/12 07:19:01;;;;;;;7.93;5.40;;;;;;;;;;5042794;28;20516;-80
2022/09/12 07:21:27;;;;;;;8.40;4.70;;;;;;;;;;5039938;28;20512;-80
2022/09/12 07:23:57;;;;;;;9.82;5.38;;;;;;;;;;5047452;28;20037;-81
2022/09/12 07:26:23;;;;;;;7.65;4.78;;;;;;;;;;5040458;28;20025;-80
2022/09/12 07:28:53;;;;;;;7.75;5.10;;;;;;;;;;5069730;28;20481;-81
2022/09/12 07:31:20;;;;;;;10.13;5.80;;;;;;;;;;5058217;28;20032;-80
2022/09/12 07:33:46;;;;;;;8.68;5.57;;;;;;;;;;5058790;28;20252;-80
2022/09/12 07:36:16;;;;;;;7.63;5.07;;;;;;;;;;5058177;28;20033;-81
2022/09/12 07:38:43;;;;;;;8.38;5.10;;;;;;;;;;5078096;28;20392;-81
2022/09/12 07:41:17;;;;;;;9.05;5.13;;;;;;;;;;5077302;28;20025;-81
2022/09/12 07:43:43;;;;;;;7.55;4.68;;;;;;;;;;5068351;28;20163;-81
2022/09/12 07:46:09;;;;;;;8.32;5.85;;;;;;;;;;5058085;28;20557;-81
2022/09/12 07:48:36;;;;;;;8.48;5.15;;;;;;;;;;5056826;28;20110;-81
2022/09/12 07:51:04;;;;;;;7.85;5.10;;;;;;;;;;5057069;28;20025;-82
2022/09/12 07:53:31;;;;;;;8.85;5.22;;;;;;;;;;5059060;28;20480;-81
2022/09/12 07:55:57;;;;;;;8.68;5.30;;;;;;;;;;5057764;28;20063;-79
2022/09/12 07:58:24;;;;;;;8.70;4.90;;;;;;;;;;5066206;28;20424;-80
2022/09/12 08:00:50;;;;;;;8.65;5.30;;;;;;;;;;5053255;28;20036;-81
2022/09/12 08:03:16;;;;;;;7.68;4.90;;;;;;;;;;5056627;28;20052;-79
2022/09/12 08:05:42;;;;;;;8.18;5.28;;;;;;;;;;5059529;28;20414;-80
2022/09/12 08:08:09;;;;;;;8.38;5.35;;;;;;;;;;5072956;28;20031;-80
2022/09/12 08:10:35;;;;;;;9.48;5.53;;;;;;;;;;5076810;28;20027;-81
2022/09/12 08:13:02;;;;;;;8.18;4.82;;;;;;;;;;5068795;28;20021;-81
2022/09/12 08:15:30;;;;;;;8.15;5.35;;;;;;;;;;5055875;28;20416;-82
2022/09/12 08:17:56;;;;;;;8.60;5.13;;;;;;;;;;5056325;28;20018;-81
2022/09/12 08:20:22;;;;;;;8.15;5.32;;;;;;;;;;5055188;28;20021;-81
2022/09/12 08:22:48;;;;;;;9.00;5.63;;;;;;;;;;5054668;28;20051;-82
2022/09/12 08:25:14;;;;;;;7.88;5.47;;;;;;;;;;5057836;28;20525;-80
2022/09/12 08:27:41;;;;;;;7.72;5.40;;;;;;;;;;5065820;28;20527;-80
2022/09/12 08:30:08;;;;;;;8.02;5.13;;;;;;;;;;5078009;28;20052;-80
2022/09/12 08:32:35;;;;;;;7.72;5.15;;;;;;;;;;5077451;28;20024;-80
2022/09/12 08:35:01;;;;;;;9.02;5.68;;;;;;;;;;5067293;28;20029;-80
2022/09/12 08:37:29;;;;;;;8.48;5.15;;;;;;;;;;5064353;28;20036;-80
2022/09/12 08:39:55;;;;;;;7.30;5.13;;;;;;;;;;5077110;28;20427;-80
2022/09/12 08:42:44;;;;;;;9.10;5.47;;;;;;;;;;5076932;28;20024;-80
2022/09/12 08:45:17;;;;;;;7.78;5.18;;;;;;;;;;5075547;28;20067;-80
2022/09/12 08:47:45;;;;;;;8.60;5.85;;;;;;;;;;5062094;28;20041;-80
2022/09/12 08:50:11;;;;;;;8.02;4.95;;;;;;;;;;5057317;28;20079;-80
2022/09/12 08:52:37;;;;;;;7.15;5.03;;;;;;;;;;5057705;28;20025;-80
2022/09/12 08:55:05;;;;;;;7.47;5.03;;;;;;;;;;5057540;28;20047;-80
2022/09/12 08:57:32;;;;;;;9.32;5.07;;;;;;;;;;5052246;28;20029;-78
2022/09/12 08:59:58;;;;;;;7.40;4.53;;;;;;;;;;5053061;28;20024;-80
2022/09/12 09:02:24;;;;;;;7.82;5.38;;;;;;;;;;5045701;28;20477;-81
2022/09/12 09:04:55;;;;;;;7.30;4.95;;;;;;;;;;5054462;28;20086;-81
2022/09/12 09:07:30;;;;;;;8.32;5.10;;;;;;;;;;5054262;28;20119;-80
2022/09/12 09:10:08;;;;;;;7.43;4.97;;;;;;;;;;5055604;28;20032;-80
2022/09/12 09:12:40;;;;;;;6.72;4.70;;;;;;;;;;5050911;28;20028;-78
2022/09/12 09:15:20;;;;;;;7.90;4.75;;;;;;;;;;5058659;28;20075;-80
2022/09/12 09:17:57;;;;;;;7.00;4.80;;;;;;;;;;5058893;28;20063;-79
2022/09/12 09:20:27;;;;;;;6.65;4.35;;;;;;;;;;5059653;28;20025;-79
2022/09/12 09:23:01;;;;;;;8.18;5.25;;;;;;;;;;5053673;28;20021;-79
2022/09/12 09:25:41;;;;;;;6.80;4.70;;;;;;;;;;5054085;28;20036;-80
2022/09/12 09:28:21;;;;;;;7.30;4.68;;;;;;;;;;5057737;28;20043;-80
2022/09/12 09:30:48;;;;;;;7.28;4.30;;;;;;;;;;5057362;28;20094;-79
2022/09/12 09:33:25;;;;;;;6.90;4.40;;;;;;;;;;5058762;28;20109;-79
2022/09/12 09:35:55;;;;;;;6.35;3.80;;;;;;;;;;5056964;28;20074;-79
2022/09/12 09:38:23;;;;;;;7.03;4.10;;;;;;;;;;5067871;28;20025;-81
2022/09/12 09:41:08;;;;;;;6.93;4.35;;;;;;;;;;5060850;28;20086;-79
2022/09/12 09:43:34;;;;;;;7.15;4.00;;;;;;;;;;5038110;28;20100;-80
2022/09/12 09:46:00;;;;;;;6.53;4.43;;;;;;;;;;5056347;28;20041;-79
2022/09/12 09:48:28;;;;;;;7.20;3.78;;;;;;;;;;5056427;28;20049;-80
2022/09/12 09:50:57;;;;;;;7.15;3.88;;;;;;;;;;5058262;28;20116;-80
2022/09/12 09:53:41;;;;;;;6.38;4.25;;;;;;;;;;5056858;28;20024;-80
2022/09/12 09:56:26;;;;;;;7.43;4.60;;;;;;;;;;5047165;28;20061;-80
2022/09/12 09:58:52;;;;;;;7.18;4.15;;;;;;;;;;5057615;28;20447;-82
2022/09/12 10:01:18;;;;;;;7.00;4.35;;;;;;;;;;5050647;28;20033;-80
2022/09/12 10:03:54;;;;;;;6.95;4.65;;;;;;;;;;5053461;28;20029;-80
2022/09/12 10:06:22;;;;;;;7.47;3.92;;;;;;;;;;5048506;28;20029;-80
2022/09/12 10:08:49;;;;;;;6.85;4.22;;;;;;;;;;5056265;28;20118;-81
2022/09/12 10:11:15;;;;;;;6.03;3.70;;;;;;;;;;5056776;28;20039;-79
2022/09/12 10:14:00;;;;;;;6.50;4.13;;;;;;;;;;5056917;28;20025;-80
2022/09/12 10:16:26;;;;;;;7.45;4.10;;;;;;;;;;5057309;28;20021;-80
2022/09/12 10:18:53;;;;;;;5.40;3.42;;;;;;;;;;5057960;28;20025;-80
2022/09/12 10:21:38;;;;;;;7.05;3.50;;;;;;;;;;5076979;28;20033;-80
2022/09/12 10:24:04;;;;;;;10.07;5.03;;;;;;;;;;5077436;28;20024;-80
2022/09/12 10:26:33;;;;;;;6.05;3.83;;;;;;;;;;5076907;28;20028;-80
2022/09/12 10:29:02;;;;;;;7.35;4.20;;;;;;;;;;5067198;28;20104;-80
2022/09/12 10:31:34;;;;;;;7.32;4.00;;;;;;;;;;5057015;28;20025;-80
2022/09/12 10:34:00;;;;;;;6.70;4.10;;;;;;;;;;5037422;28;20184;-81
2022/09/12 10:36:35;;;;;;;6.10;4.13;;;;;;;;;;5036904;28;20452;-79
2022/09/12 10:39:02;;;;;;;6.38;4.25;;;;;;;;;;5038630;28;20058;-80
2022/09/12 10:41:35;;;;;;;5.45;3.42;;;;;;;;;;5055728;28;20452;-81
2022/09/12 10:44:15;;;;;;;5.32;3.47;;;;;;;;;;5057042;28;20025;-81
2022/09/12 10:46:41;;;;;;;6.05;3.65;;;;;;;;;;5056752;28;20098;-79
2022/09/12 10:49:20;;;;;;;6.35;3.92;;;;;;;;;;5057870;28;20078;-78
2022/09/12 10:51:47;;;;;;;5.38;3.47;;;;;;;;;;5060429;28;20566;-80
2022/09/12 10:54:15;;;;;;;6.53;3.97;;;;;;;;;;5058949;28;20055;-81
2022/09/12 10:56:48;;;;;;;5.40;3.67;;;;;;;;;;5062056;28;20056;-80
2022/09/12 10:59:17;;;;;;;5.45;3.78;;;;;;;;;;5063044;28;20021;-78
2022/09/12 11:01:55;;;;;;;5.22;3.15;;;;;;;;;;5058236;28;20109;-78
2022/09/12 11:04:21;;;;;;;6.00;3.70;;;;;;;;;;5059530;28;20037;-80
2022/09/12 11:06:47;;;;;;;6.13;3.75;;;;;;;;;;5062504;28;20048;-80
2022/09/12 11:09:19;;;;;;;5.95;3.90;;;;;;;;;;5066341;28;20032;-78
2022/09/12 11:11:56;;;;;;;5.38;3.33;;;;;;;;;;5071334;28;20033;-79
2022/09/12 11:14:25;;;;;;;6.57;3.50;;;;;;;;;;5063253;28;20025;-79
2022/09/12 11:16:54;;;;;;;5.85;3.72;;;;;;;;;;5047443;28;20017;-80
2022/09/12 11:19:26;;;;;;;6.40;4.20;;;;;;;;;;5051548;28;20054;-79
2022/09/12 11:22:11;;;;;;;6.38;4.22;;;;;;;;;;5080975;28;20032;-81
2022/09/12 11:24:46;;;;;;;5.75;3.78;;;;;;;;;;5079075;28;20090;-81
2022/09/12 11:27:18;;;;;;;7.45;4.50;;;;;;;;;;5062495;28;20037;-80
2022/09/12 11:29:45;;;;;;;;;;;;;;;;;;5059951;28;20021;-80
2022/09/12 11:32:14;;;;;;;5.55;3.78;;;;;;;;;;5037512;28;19909;-82
2022/09/12 11:35:06;;;;;;;6.88;4.25;;;;;;;;;;5038871;28;20026;-82
2022/09/12 11:37:44;;;;;;;6.07;4.07;;;;;;;;;;5067427;28;20036;-79
2022/09/12 11:40:30;;;;;;;4.93;3.22;;;;;;;;;;5074829;28;20033;-79
2022/09/12 11:43:00;;;;;;;6.32;3.65;;;;;;;;;;5036951;28;20123;-79
2022/09/12 11:45:32;;;;;;;6.57;3.58;;;;;;;;;;5059382;28;20032;-79
2022/09/12 11:48:02;;;;;;;6.78;3.78;;;;;;;;;;5076529;28;20415;-79
2022/09/12 11:50:30;;;;;;;5.85;3.88;;;;;;;;;;5076350;28;20028;-77
2022/09/12 11:53:05;;;;;;;5.25;3.38;;;;;;;;;;5069151;28;20032;-80
2022/09/12 11:55:44;;;;;;;5.22;3.20;;;;;;;;;;5075977;28;20169;-81
2022/09/12 11:58:11;;;;;;;4.97;3.13;;;;;;;;;;5058074;28;20076;-79
2022/09/12 12:00:39;;;;;;;5.20;3.10;;;;;;;;;;5073805;28;20028;-81
2022/09/12 12:03:16;;;;;;;6.75;3.67;;;;;;;;;;5077689;28;20025;-81
2022/09/12 12:05:52;;;;;;;5.15;3.45;;;;;;;;;;5068718;28;20051;-80
2022/09/12 12:08:18;;;;;;;5.22;3.15;;;;;;;;;;5071421;28;20032;-80
2022/09/12 12:10:53;;;;;;;5.30;3.35;;;;;;;;;;5066994;28;20054;-80
2022/09/12 12:13:19;;;;;;;5.18;3.20;;;;;;;;;;5071887;28;20032;-80
2022/09/12 12:15:47;;;;;;;5.70;3.05;;;;;;;;;;5037777;28;20064;-80
2022/09/12 12:18:16;;;;;;;5.00;3.35;;;;;;;;;;5039076;28;20025;-82
2022/09/12 12:20:42;;;;;;;5.75;3.55;;;;;;;;;;5053565;28;20028;-82
2022/09/12 12:23:22;;;;;;;5.28;3.30;;;;;;;;;;5057573;28;20021;-81
2022/09/12 12:25:52;;;;;;;5.63;3.42;;;;;;;;;;5057468;28;20017;-80
2022/09/12 12:28:37;;;;;;;5.20;3.25;;;;;;;;;;5058513;28;20024;-80
2022/09/12 12:31:04;;;;;;;5.40;2.90;;;;;;;;;;5065700;28;20021;-80
2022/09/12 12:33:30;;;;;;;5.47;3.40;;;;;;;;;;5057577;28;20049;-80
2022/09/12 12:35:59;;;;;;;6.50;3.72;;;;;;;;;;5059586;28;20038;-80
2022/09/12 12:38:29;;;;;;;5.50;3.65;;;;;;;;;;5057481;28;20602;-80
2022/09/12 12:41:28;;;;;;;5.28;3.47;;;;;;;;;;5056890;28;20029;-81
2022/09/12 12:43:56;;;;;;;5.05;3.45;;;;;;;;;;5052866;28;20088;-81
2022/09/12 12:46:23;;;;;;;5.32;3.50;;;;;;;;;;5049846;28;20037;-81
2022/09/12 12:48:55;;;;;;;6.18;3.53;;;;;;;;;;5051412;28;20404;-80
2022/09/12 12:51:26;;;;;;;5.50;3.45;;;;;;;;;;5039758;28;20032;-81
2022/09/12 12:53:53;;;;;;;7.88;3.95;;;;;;;;;;5054041;28;20029;-81
2022/09/12 12:56:27;;;;;;;6.38;3.53;;;;;;;;;;5054619;28;20021;-81
2022/09/12 12:58:58;;;;;;;5.55;3.67;;;;;;;;;;5051905;28;20029;-81
2022/09/12 13:01:24;;;;;;;6.00;3.35;;;;;;;;;;5060912;28;20031;-81
2022/09/12 13:04:04;;;;;;;4.93;3.40;;;;;;;;;;5055807;28;20029;-81
2022/09/12 13:06:33;;;;;;;5.72;3.45;;;;;;;;;;5058152;28;20029;-80
2022/09/12 13:09:01;;;;;;;5.82;3.33;;;;;;;;;;5058439;28;20029;-81
2022/09/12 13:11:35;;;;;;;5.40;3.20;;;;;;;;;;5058719;28;20033;-81
2022/09/12 13:14:03;;;;;;;5.40;3.30;;;;;;;;;;5058106;28;20029;-81
2022/09/12 13:16:31;;;;;;;6.05;3.20;;;;;;;;;;5057710;28;20511;-81
2022/09/12 13:19:01;;;;;;;5.30;3.25;;;;;;;;;;5054416;28;20052;-81
2022/09/12 13:21:27;;;;;;;5.80;4.20;;;;;;;;;;5058972;28;20017;-81
2022/09/12 13:24:01;;;;;;;5.22;3.13;;;;;;;;;;5059309;28;20037;-81
2022/09/12 13:26:27;;;;;;;5.00;2.75;;;;;;;;;;5060264;28;20469;-81
2022/09/12 13:29:30;;;;;;;5.47;3.20;;;;;;;;;;5057883;28;20091;-80
2022/09/12 13:31:58;;;;;;;5.47;3.17;;;;;;;;;;5040925;28;20106;-81
2022/09/12 13:34:28;;;;;;;5.22;2.80;;;;;;;;;;5050430;28;20041;-80
2022/09/12 13:37:09;;;;;;;6.07;3.05;;;;;;;;;;5034737;28;20034;-80
2022/09/12 13:39:42;;;;;;;6.63;3.33;;;;;;;;;;5034877;28;20064;-81
2022/09/12 13:42:40;;;;;;;5.63;3.15;;;;;;;;;;5043086;28;20048;-80
2022/09/12 13:45:06;;;;;;;5.28;2.90;;;;;;;;;;4970565;28;20043;-80
2022/09/12 13:47:35;;;;;;;5.15;3.00;;;;;;;;;;4976213;28;20046;-81
2022/09/12 13:50:03;;;;;;;4.70;2.67;;;;;;;;;;4969262;28;20573;-80
2022/09/12 13:52:31;;;;;;;6.50;3.03;;;;;;;;;;4966727;28;20042;-81
2022/09/12 13:54:59;;;;;;;6.45;2.90;;;;;;;;;;4973690;28;20085;-81
2022/09/12 13:57:29;;;;;;;5.95;2.55;;;;;;;;;;4973708;28;20057;-81
2022/09/12 13:59:56;;;;;;;4.97;2.40;;;;;;;;;;4959751;28;20031;-81
2022/09/12 14:02:23;;;;;;;6.07;2.70;;;;;;;;;;4954567;29;20124;-81
2022/09/12 14:05:07;;;;;;;5.90;2.38;;;;;;;;;;4956185;28;20035;-81
2022/09/12 14:07:34;;;;;;;4.85;2.85;;;;;;;;;;4992783;28;20561;-81
2022/09/12 14:10:03;;;;;;;4.13;2.15;;;;;;;;;;4994562;28;20387;-80
2022/09/12 14:12:33;;;;;;;4.68;3.38;;;;;;;;;;4996524;28;20030;-81
2022/09/12 14:14:59;;;;;;;4.47;2.90;;;;;;;;;;4995857;28;20038;-81
2022/09/12 14:17:31;;;;;;;5.55;2.67;;;;;;;;;;4992208;28;20038;-81
2022/09/12 14:20:02;;;;;;;4.43;2.28;;;;;;;;;;5005745;28;20044;-81
2022/09/12 14:22:29;;;;;;;5.30;2.53;;;;;;;;;;5055406;28;20048;-81
2022/09/12 14:24:55;;;;;;;4.40;2.45;;;;;;;;;;5054592;28;20037;-80
2022/09/12 14:27:46;;;;;;;5.00;2.75;;;;;;;;;;5061627;28;20029;-81
2022/09/12 14:30:32;;;;;;;4.18;2.47;;;;;;;;;;5042249;28;20039;-81
2022/09/12 14:33:24;;;;;;;5.07;2.70;;;;;;;;;;5070757;28;20038;-81
2022/09/12 14:36:09;;;;;;;4.53;2.40;;;;;;;;;;5047757;28;20124;-80
2022/09/12 14:38:43;;;;;;;5.30;3.00;;;;;;;;;;5061431;28;20473;-82
2022/09/12 14:41:10;;;;;;;4.35;2.30;;;;;;;;;;5057269;28;20044;-82
2022/09/12 14:43:38;;;;;;;5.32;2.30;;;;;;;;;;5055156;28;20045;-81
2022/09/12 14:46:22;;;;;;;7.05;3.03;;;;;;;;;;5050433;28;20082;-81
2022/09/12 14:48:59;;;;;;;5.32;2.33;;;;;;;;;;5058755;28;20381;-82
2022/09/12 14:51:33;;;;;;;4.18;2.20;;;;;;;;;;5045432;28;20029;-82
2022/09/12 14:54:00;;;;;;;4.47;2.60;;;;;;;;;;5055711;28;20079;-82
2022/09/12 14:56:40;;;;;;;5.18;2.63;;;;;;;;;;5065784;28;20096;-81